Hallettsville, Texas
Current Conditions -  °F | °C
As of 9:55 AM on Tuesday 21 Oct 2014 (Local Time) from K66R Reporting Station
Clear Clear  
Wind Chill: 21°   Ceiling: Unl
Heat Index: 21°   Visibility: 10mi
Dew Point: 15°   Wind: 6mph
Humidity: 70%   Direction: 90°E
Pressure: 30.07"   Gusts: NA
Location:  29.44°N, 96.94°W
Report Text: K66R 211455Z AUTO 09005KT 10SM CLR 21/15 A3007 RMK AO2 T02060150
Loading
Personal Weather Stations






























Interactive Weather Map
Tropical Storm Tracking
New forecast layout! Learn more

10-Day Weather Forecast

Advertisements
Track Severe Weather on mobile